Time;durP1;ratioP1;P1;durP2;ratioP2;P2;SDS_P1;SDS_P2;PMS_P1;PMS_P2;Temp;Humidity;BMP_temperature;BMP_pressure;BME280_temperature;BME280_humidity;BME280_pressure;Samples;Min_cycle;Max_cycle;Signal;HPM_P1;HPM_P2
2022/07/07 00:02:17;;;;;;;4.60;3.80;;;;;;;16.94;98.15;100227.44;6183290;23;20013;-84
2022/07/07 00:04:42;;;;;;;5.03;3.70;;;;;;;16.86;98.23;100213.03;6157339;23;20012;-86
2022/07/07 00:07:08;;;;;;;4.05;3.65;;;;;;;17.01;96.96;100218.69;6133085;23;20013;-86
2022/07/07 00:09:34;;;;;;;4.30;3.80;;;;;;;16.69;99.27;100221.03;6183210;23;20502;-86
2022/07/07 00:12:00;;;;;;;5.07;4.18;;;;;;;16.50;100.00;100213.91;6183489;23;20015;-86
2022/07/07 00:14:26;;;;;;;4.38;3.97;;;;;;;16.27;100.00;100221.03;6182405;23;20019;-86
2022/07/07 00:16:51;;;;;;;6.85;4.05;;;;;;;16.34;100.00;100217.09;6157296;23;20005;-86
2022/07/07 00:19:16;;;;;;;5.20;4.00;;;;;;;16.26;100.00;100215.88;6156359;23;20060;-86
2022/07/07 00:21:42;;;;;;;5.32;3.90;;;;;;;16.40;100.00;100206.03;6183779;23;20463;-86
2022/07/07 00:24:08;;;;;;;4.50;4.10;;;;;;;16.54;100.00;100203.31;6183773;23;20013;-86
2022/07/07 00:26:33;;;;;;;5.35;3.97;;;;;;;16.57;98.92;100202.44;6183298;23;20009;-86
2022/07/07 00:28:59;;;;;;;5.18;4.30;;;;;;;16.45;100.00;100194.22;6156431;23;20041;-86
2022/07/07 00:31:25;;;;;;;4.95;4.45;;;;;;;16.37;100.00;100210.56;6157018;23;20326;-86
2022/07/07 00:33:50;;;;;;;5.80;4.30;;;;;;;16.35;100.00;100210.25;6157317;23;20013;-86
2022/07/07 00:36:16;;;;;;;4.50;4.07;;;;;;;16.20;100.00;100212.97;6182324;23;20017;-86
2022/07/07 00:38:41;;;;;;;4.68;4.28;;;;;;;16.27;100.00;100206.25;6182851;23;20059;-86
2022/07/07 00:41:07;;;;;;;4.55;4.05;;;;;;;16.14;100.00;100191.66;6182061;23;20470;-85
2022/07/07 00:43:37;;;;;;;4.70;4.30;;;;;;;16.16;100.00;100211.56;6158266;23;20340;-84
2022/07/07 00:46:03;;;;;;;4.70;4.30;;;;;;;16.23;100.00;100194.44;6131280;23;20023;-84
2022/07/07 00:48:29;;;;;;;4.45;4.05;;;;;;;16.34;100.00;100205.91;6182934;23;20087;-84
2022/07/07 00:50:55;;;;;;;4.43;4.03;;;;;;;16.44;100.00;100201.06;6132038;23;20024;-84
2022/07/07 00:53:20;;;;;;;4.78;4.05;;;;;;;16.13;100.00;100201.34;6156872;23;20013;-84
2022/07/07 00:55:46;;;;;;;6.30;4.15;;;;;;;16.20;100.00;100201.00;6183021;23;20083;-84
2022/07/07 00:58:11;;;;;;;4.75;3.90;;;;;;;16.14;100.00;100191.66;6183140;23;20021;-84
2022/07/07 01:03:28;;;;;;;4.53;4.13;;;;;;;16.26;100.00;100201.88;6191781;23;20070;-85
2022/07/07 01:05:55;;;;;;;6.18;4.32;;;;;;;16.21;100.00;100196.94;6187615;23;20013;-85
2022/07/07 01:08:20;;;;;;;6.43;4.60;;;;;;;15.86;100.00;100197.34;6187621;23;20436;-86
2022/07/07 01:10:46;;;;;;;6.00;4.30;;;;;;;16.04;100.00;100192.97;6162647;23;20083;-86
2022/07/07 01:13:11;;;;;;;4.97;4.25;;;;;;;15.94;100.00;100191.41;6184894;23;20013;-86
2022/07/07 01:15:37;;;;;;;6.90;4.45;;;;;;;16.04;100.00;100198.56;6187202;23;20017;-86
2022/07/07 01:18:03;;;;;;;5.03;4.57;;;;;;;15.74;100.00;100191.94;6187382;23;20012;-86
2022/07/07 01:20:28;;;;;;;5.65;4.57;;;;;;;15.51;100.00;100196.16;6214568;23;20454;-86
2022/07/07 01:22:54;;;;;;;6.10;4.28;;;;;;;15.56;100.00;100197.56;6213397;23;20024;-92
2022/07/07 01:25:21;;;;;;;7.05;4.40;;;;;;;15.55;100.00;100196.78;6163188;23;20016;-91
2022/07/07 01:27:47;;;;;;;6.45;5.03;;;;;;;15.32;100.00;100189.00;6188146;23;20024;-91
2022/07/07 01:30:13;;;;;;;5.10;4.60;;;;;;;15.27;100.00;100195.19;6198471;23;19996;-90
2022/07/07 01:32:39;;;;;;;5.72;4.80;;;;;;;15.24;100.00;100196.91;6218470;23;20024;-90
2022/07/07 01:35:05;;;;;;;7.38;4.82;;;;;;;15.34;100.00;100197.69;6243589;23;20008;-91
2022/07/07 01:37:33;;;;;;;5.88;5.28;;;;;;;15.23;100.00;100186.19;6217425;23;20017;-91
2022/07/07 01:39:59;;;;;;;7.55;5.03;;;;;;;14.92;100.00;100189.88;6205855;23;20059;-91
2022/07/07 01:42:25;;;;;;;5.63;5.13;;;;;;;15.17;100.00;100196.41;6214184;23;20013;-86
2022/07/07 01:44:51;;;;;;;5.40;4.90;;;;;;;15.37;100.00;100186.34;6214294;23;20004;-86
2022/07/07 01:47:18;;;;;;;5.10;4.60;;;;;;;15.41;100.00;100191.75;6186846;23;20473;-86
2022/07/07 01:49:43;;;;;;;5.28;4.70;;;;;;;15.44;100.00;100190.84;6214294;23;20023;-86
2022/07/07 01:52:09;;;;;;;5.55;5.03;;;;;;;15.51;100.00;100182.19;6185981;23;20414;-86
2022/07/07 01:54:35;;;;;;;6.53;4.65;;;;;;;15.49;100.00;100201.38;6187241;23;20075;-86
2022/07/07 01:57:01;;;;;;;5.45;4.95;;;;;;;15.29;100.00;100201.09;6187175;23;20017;-91
2022/07/07 01:59:26;;;;;;;5.20;4.53;;;;;;;15.21;100.00;100197.03;6162447;23;20018;-90
2022/07/07 02:01:52;;;;;;;5.20;4.38;;;;;;;15.28;100.00;100196.75;6161924;23;20017;-91
2022/07/07 02:04:18;;;;;;;4.90;4.50;;;;;;;15.37;100.00;100202.31;6186185;23;20043;-90
2022/07/07 02:06:43;;;;;;;5.82;5.05;;;;;;;15.38;100.00;100215.06;6187428;23;20086;-90
2022/07/07 02:09:09;;;;;;;5.20;4.68;;;;;;;15.33;100.00;100205.28;6185560;23;20018;-91
2022/07/07 02:11:35;;;;;;;5.88;4.78;;;;;;;15.34;100.00;100214.44;6186801;23;20052;-92
2022/07/07 02:14:01;;;;;;;5.72;4.63;;;;;;;15.32;100.00;100211.34;6213067;23;20012;-91
2022/07/07 02:16:27;;;;;;;5.38;4.75;;;;;;;15.38;100.00;100215.84;6213546;23;20040;-91
2022/07/07 02:18:55;;;;;;;7.35;5.10;;;;;;;15.59;100.00;100218.97;6212638;23;20035;-86
2022/07/07 02:21:21;;;;;;;5.65;5.03;;;;;;;15.62;100.00;100221.63;6186318;23;20021;-86
2022/07/07 02:23:47;;;;;;;4.65;4.25;;;;;;;15.41;100.00;100214.13;6213160;23;20063;-86
2022/07/07 02:26:13;;;;;;;5.93;4.72;;;;;;;15.32;100.00;100217.72;6186392;23;20465;-86
2022/07/07 02:28:40;;;;;;;6.03;4.43;;;;;;;15.24;100.00;100210.88;6187810;23;20008;-86
2022/07/07 02:31:05;;;;;;;5.40;4.90;;;;;;;15.34;100.00;100215.22;6186374;23;20000;-86
2022/07/07 02:33:31;;;;;;;5.53;4.40;;;;;;;15.46;100.00;100216.31;6163075;23;20095;-86
2022/07/07 02:35:57;;;;;;;5.35;4.75;;;;;;;15.49;100.00;100215.38;6212899;23;20095;-91
2022/07/07 02:38:23;;;;;;;5.72;4.60;;;;;;;15.51;100.00;100220.53;6161523;23;20083;-86
2022/07/07 02:40:49;;;;;;;4.95;4.25;;;;;;;15.58;100.00;100215.41;6186432;23;20008;-86
2022/07/07 02:43:15;;;;;;;5.18;4.65;;;;;;;15.41;100.00;100216.91;6187130;23;20020;-86
2022/07/07 02:45:41;;;;;;;5.47;4.78;;;;;;;15.15;100.00;100212.88;6212567;23;20013;-86
2022/07/07 02:48:07;;;;;;;5.30;4.80;;;;;;;15.20;100.00;100209.47;6186076;23;20048;-86
2022/07/07 02:50:33;;;;;;;6.15;4.68;;;;;;;15.21;100.00;100211.78;6185847;23;20012;-86
2022/07/07 02:52:58;;;;;;;5.07;4.63;;;;;;;15.12;100.00;100225.00;6212740;23;20019;-86
2022/07/07 02:55:24;;;;;;;5.70;4.57;;;;;;;15.22;100.00;100221.75;6185370;23;20098;-86
2022/07/07 02:57:51;;;;;;;5.00;4.50;;;;;;;15.45;100.00;100225.19;6186726;23;20583;-91
2022/07/07 03:00:17;;;;;;;5.88;4.93;;;;;;;15.45;100.00;100214.75;6212514;23;20016;-90
2022/07/07 03:02:42;;;;;;;7.25;4.80;;;;;;;15.46;100.00;100212.72;6185903;23;20016;-91
2022/07/07 03:05:08;;;;;;;5.15;4.60;;;;;;;15.52;100.00;100211.69;6187311;23;20016;-91
2022/07/07 03:07:34;;;;;;;6.60;5.00;;;;;;;15.48;100.00;100216.63;6212370;23;20096;-92
2022/07/07 03:09:59;;;;;;;5.65;5.00;;;;;;;15.54;100.00;100209.19;6213641;23;20052;-92
2022/07/07 03:12:25;;;;;;;6.45;5.85;;;;;;;15.10;100.00;100207.91;6213220;23;20040;-91
2022/07/07 03:14:50;;;;;;;6.03;5.15;;;;;;;15.10;100.00;100213.50;6213383;23;20019;-91
2022/07/07 03:17:16;;;;;;;6.18;5.57;;;;;;;14.99;100.00;100210.38;6212484;23;20467;-92
2022/07/07 03:19:41;;;;;;;6.38;5.75;;;;;;;14.79;100.00;100208.00;6185411;23;20092;-92
2022/07/07 03:22:07;;;;;;;7.22;5.32;;;;;;;14.84;100.00;100213.00;6211038;23;20431;-91
2022/07/07 03:24:32;;;;;;;6.65;5.55;;;;;;;14.90;100.00;100206.31;6212537;23;20008;-91
2022/07/07 03:27:00;;;;;;;6.85;5.90;;;;;;;14.70;100.00;100211.56;6213253;23;20007;-91
2022/07/07 03:29:26;;;;;;;9.65;5.85;;;;;;;14.61;100.00;100211.53;6211259;23;20012;-92
2022/07/07 03:31:51;;;;;;;7.18;6.40;;;;;;;14.35;100.00;100208.19;6212577;23;20487;-91
2022/07/07 03:34:17;;;;;;;7.43;6.13;;;;;;;14.29;100.00;100207.19;6211934;23;20063;-86
2022/07/07 03:36:42;;;;;;;7.13;6.43;;;;;;;14.04;100.00;100196.19;6185003;23;20048;-91
2022/07/07 03:39:08;;;;;;;6.50;5.90;;;;;;;14.12;100.00;100199.50;6185031;23;20100;-90
2022/07/07 03:41:33;;;;;;;6.95;6.32;;;;;;;14.05;100.00;100197.75;6210825;23;20020;-91
2022/07/07 03:43:59;;;;;;;8.25;6.75;;;;;;;14.03;100.00;100198.22;6212102;23;20005;-91
2022/07/07 03:46:24;;;;;;;7.35;6.75;;;;;;;14.05;100.00;100196.97;6211678;23;20020;-91
2022/07/07 03:48:50;;;;;;;7.97;7.20;;;;;;;14.21;100.00;100191.94;6185954;23;20023;-91
2022/07/07 03:51:15;;;;;;;7.63;6.93;;;;;;;14.43;100.00;100191.94;6211475;23;20005;-90
2022/07/07 03:53:41;;;;;;;7.68;6.93;;;;;;;14.60;100.00;100187.63;6184441;23;20347;-86
2022/07/07 03:56:06;;;;;;;7.47;6.78;;;;;;;14.74;100.00;100187.06;6212070;23;20044;-86
2022/07/07 03:58:32;;;;;;;7.40;6.68;;;;;;;14.81;100.00;100195.13;6211152;23;20438;-86
2022/07/07 04:00:59;;;;;;;6.95;6.30;;;;;;;14.81;100.00;100192.34;6185606;23;20040;-86
2022/07/07 04:03:25;;;;;;;7.68;6.70;;;;;;;14.93;100.00;100180.25;6211454;23;20070;-86
2022/07/07 04:05:51;;;;;;;7.47;6.00;;;;;;;15.23;100.00;100186.19;6185193;23;20020;-87
2022/07/07 04:08:16;;;;;;;6.43;5.82;;;;;;;15.46;100.00;100205.13;6210589;23;20070;-86
2022/07/07 04:10:42;;;;;;;5.97;5.38;;;;;;;15.55;100.00;100184.81;6184888;23;20055;-86
2022/07/07 04:13:08;;;;;;;7.80;5.53;;;;;;;15.63;100.00;100180.44;6185343;23;20011;-87
2022/07/07 04:15:34;;;;;;;7.68;5.60;;;;;;;15.79;100.00;100178.09;6160197;23;20009;-86
2022/07/07 04:18:01;;;;;;;7.28;4.95;;;;;;;15.96;100.00;100172.94;6211738;23;20028;-86
2022/07/07 04:20:29;;;;;;;6.80;5.13;;;;;;;16.13;100.00;100184.53;6185422;23;20217;-87
2022/07/07 04:22:55;;;;;;;7.88;5.10;;;;;;;16.19;100.00;100193.84;6211174;23;20472;-86
2022/07/07 04:25:21;;;;;;;6.45;4.70;;;;;;;16.04;100.00;100188.13;6185626;23;20574;-87
2022/07/07 04:27:46;;;;;;;7.13;5.20;;;;;;;15.94;100.00;100174.63;6185719;23;20427;-87
2022/07/07 04:30:12;;;;;;;6.32;4.80;;;;;;;15.93;100.00;100187.09;6211547;23;20604;-87
2022/07/07 04:32:37;;;;;;;5.38;4.80;;;;;;;16.13;100.00;100178.94;6185048;23;20008;-91
2022/07/07 04:35:03;;;;;;;8.70;4.80;;;;;;;16.32;100.00;100180.41;6212472;23;20682;-92
2022/07/07 04:37:29;;;;;;;6.20;4.90;;;;;;;16.36;100.00;100186.63;6185400;23;20005;-91
2022/07/07 04:39:54;;;;;;;6.07;5.20;;;;;;;16.51;100.00;100192.31;6184213;23;20331;-92
2022/07/07 04:42:20;;;;;;;5.90;4.93;;;;;;;16.33;100.00;100199.56;6185476;23;20190;-93
2022/07/07 04:44:45;;;;;;;6.63;5.63;;;;;;;16.17;100.00;100196.34;6211604;23;20023;-92
2022/07/07 04:47:11;;;;;;;6.18;5.53;;;;;;;16.29;100.00;100193.34;6212628;23;20009;-91
2022/07/07 04:49:36;;;;;;;6.50;5.80;;;;;;;16.33;100.00;100201.56;6212847;23;20087;-87
2022/07/07 04:52:02;;;;;;;5.72;5.22;;;;;;;16.32;100.00;100189.59;6186757;23;20016;-91
2022/07/07 04:54:27;;;;;;;6.82;5.57;;;;;;;16.44;100.00;100195.44;6213255;23;20035;-91
2022/07/07 04:56:53;;;;;;;8.25;5.53;;;;;;;16.63;100.00;100192.13;6187342;23;20012;-92
2022/07/07 04:59:18;;;;;;;6.95;5.00;;;;;;;16.70;100.00;100193.81;6186641;23;20438;-92
2022/07/07 05:01:44;;;;;;;6.45;5.55;;;;;;;16.72;100.00;100191.28;6185798;23;20008;-91
2022/07/07 05:04:10;;;;;;;5.93;5.03;;;;;;;16.73;100.00;100185.22;6160821;23;20044;-92
2022/07/07 05:06:35;;;;;;;6.63;5.65;;;;;;;16.73;100.00;100193.63;6186198;23;20436;-91
2022/07/07 05:09:01;;;;;;;6.00;4.82;;;;;;;16.97;100.00;100196.44;6212344;23;20008;-90
2022/07/07 05:11:26;;;;;;;5.65;5.15;;;;;;;17.14;100.00;100194.78;6186428;23;20012;-88
2022/07/07 05:13:52;;;;;;;6.32;4.75;;;;;;;17.54;100.00;100183.06;6186789;23;20447;-88
2022/07/07 05:16:17;;;;;;;7.05;4.85;;;;;;;17.84;99.81;100183.09;6185658;23;20492;-88
2022/07/07 05:18:43;;;;;;;5.68;5.18;;;;;;;18.07;97.96;100177.41;6213683;23;20510;-88
2022/07/07 05:21:08;;;;;;;5.90;4.72;;;;;;;18.36;95.92;100179.38;6186780;23;20339;-88
2022/07/07 05:23:34;;;;;;;5.63;4.95;;;;;;;18.59;95.71;100184.13;6212692;23;20013;-87
2022/07/07 05:25:59;;;;;;;9.57;5.20;;;;;;;18.88;97.01;100179.66;6162177;23;20013;-88
2022/07/07 05:28:25;;;;;;;7.53;4.60;;;;;;;19.15;96.13;100179.25;6185592;23;20004;-90
2022/07/07 05:30:51;;;;;;;5.30;4.57;;;;;;;19.16;96.25;100175.19;6185136;23;20474;-89
2022/07/07 05:33:17;;;;;;;5.97;4.45;;;;;;;19.20;97.74;100184.16;6185109;23;20050;-91
2022/07/07 05:35:42;;;;;;;4.82;4.10;;;;;;;19.20;98.44;100172.94;6160560;23;20013;-91
2022/07/07 05:38:08;;;;;;;5.78;4.40;;;;;;;19.21;99.34;100184.94;6161481;23;20034;-91
2022/07/07 05:40:36;;;;;;;6.53;4.70;;;;;;;19.16;100.00;100189.25;6185899;23;20256;-91
2022/07/07 05:43:03;;;;;;;5.53;4.20;;;;;;;18.97;100.00;100174.66;6160132;23;20020;-90
2022/07/07 05:45:29;;;;;;;5.40;4.68;;;;;;;19.09;100.00;100192.44;6184932;23;20012;-90
2022/07/07 05:47:54;;;;;;;6.25;4.47;;;;;;;19.05;98.81;100189.06;6159545;23;20017;-91
2022/07/07 05:50:24;;;;;;;4.97;4.47;;;;;;;18.90;99.55;100191.97;6182693;23;20005;-89
2022/07/07 05:52:50;;;;;;;5.28;4.13;;;;;;;18.97;98.35;100187.94;6165953;23;20013;-95
2022/07/07 05:55:15;;;;;;;8.05;4.45;;;;;;;19.21;96.51;100194.13;6215695;23;20028;-96
2022/07/07 05:57:41;;;;;;;6.75;4.47;;;;;;;19.12;97.01;100185.88;6216945;23;20013;-95
2022/07/07 06:00:07;;;;;;;6.65;4.30;;;;;;;18.97;97.90;100199.97;6214252;23;20000;-96
2022/07/07 06:02:37;;;;;;;6.30;4.70;;;;;;;19.13;97.01;100184.56;6189139;23;20021;-96
2022/07/07 06:05:03;;;;;;;5.13;4.72;;;;;;;19.07;97.52;100195.00;6189414;23;20443;-96
2022/07/07 06:07:28;;;;;;;4.97;4.45;;;;;;;18.87;97.96;100194.97;6164595;23;20009;-86
2022/07/07 06:09:54;;;;;;;6.60;4.43;;;;;;;19.16;96.55;100188.47;6186335;23;20004;-87
2022/07/07 06:12:21;;;;;;;6.85;4.57;;;;;;;19.20;97.15;100184.16;6161484;23;20020;-86
2022/07/07 06:14:47;;;;;;;5.97;5.40;;;;;;;18.96;100.00;100181.56;6186979;23;20047;-87
2022/07/07 06:17:12;;;;;;;7.32;5.80;;;;;;;18.67;100.00;100189.31;6186374;23;20001;-87
2022/07/07 06:19:38;;;;;;;8.93;6.07;;;;;;;18.64;100.00;100177.78;6161571;23;20020;-88
2022/07/07 06:22:04;;;;;;;6.90;5.93;;;;;;;18.71;100.00;100179.44;6186521;23;20103;-87
2022/07/07 06:24:29;;;;;;;8.10;6.38;;;;;;;18.75;100.00;100182.81;6162188;23;20439;-95
2022/07/07 06:26:55;;;;;;;7.75;6.22;;;;;;;18.60;100.00;100179.28;6163256;23;20016;-87
2022/07/07 06:29:20;;;;;;;8.25;6.00;;;;;;;18.56;100.00;100179.47;6182666;23;20019;-87
2022/07/07 06:31:46;;;;;;;7.18;6.55;;;;;;;18.59;100.00;100167.28;6135269;23;20016;-87
2022/07/07 06:34:11;;;;;;;8.88;6.32;;;;;;;18.77;100.00;100162.63;6212339;23;20012;-87
2022/07/07 06:36:37;;;;;;;6.05;5.50;;;;;;;19.04;100.00;100173.50;6161380;23;20008;-87
2022/07/07 06:39:02;;;;;;;6.60;5.93;;;;;;;19.12;100.00;100154.16;6161196;23;20040;-87
2022/07/07 06:41:38;;;;;;;8.10;6.00;;;;;;;19.19;100.00;100154.50;6185503;23;20023;-87
2022/07/07 06:44:04;;;;;;;8.30;5.85;;;;;;;19.20;100.00;100158.88;6162482;23;20012;-96
2022/07/07 06:46:30;;;;;;;6.85;6.18;;;;;;;19.33;100.00;100159.25;6166932;23;20079;-96
2022/07/07 06:48:56;;;;;;;9.07;6.13;;;;;;;19.46;100.00;100145.63;6217565;23;20005;-96
2022/07/07 06:51:21;;;;;;;5.47;4.80;;;;;;;19.57;100.00;100163.91;6194533;23;20047;-96
2022/07/07 06:53:47;;;;;;;9.13;5.70;;;;;;;19.60;100.00;100165.72;6218205;23;20009;-93
2022/07/07 06:56:13;;;;;;;6.60;5.90;;;;;;;19.71;100.00;100168.63;6162913;23;20013;-93
2022/07/07 06:58:38;;;;;;;8.52;5.65;;;;;;;19.91;100.00;100174.97;6188072;23;20009;-95
2022/07/07 07:01:04;;;;;;;7.93;6.70;;;;;;;19.92;100.00;100192.66;6186390;23;20021;-93
2022/07/07 07:03:30;;;;;;;7.75;6.05;;;;;;;19.63;100.00;100221.00;6159707;23;20009;-85
2022/07/07 07:05:55;;;;;;;7.95;6.50;;;;;;;19.43;100.00;100253.50;6161733;23;20040;-96
2022/07/07 07:08:21;;;;;;;6.82;5.97;;;;;;;18.91;100.00;100285.50;6164495;23;20016;-95
2022/07/07 07:10:49;;;;;;;6.53;5.90;;;;;;;18.47;100.00;100314.41;6186304;23;20020;-92
2022/07/07 07:13:15;;;;;;;10.38;7.35;;;;;;;18.30;100.00;100310.50;6185284;23;20669;-95
2022/07/07 07:15:40;;;;;;;8.73;7.30;;;;;;;18.00;100.00;100303.31;6185984;23;20087;-95
2022/07/07 07:18:06;;;;;;;11.77;8.70;;;;;;;17.85;100.00;100319.34;6212121;23;20004;-95
2022/07/07 07:20:33;;;;;;;10.18;8.65;;;;;;;17.82;100.00;100325.94;6186537;23;20490;-92
2022/07/07 07:22:58;;;;;;;10.63;9.52;;;;;;;17.65;100.00;100317.16;6212336;23;20004;-88
2022/07/07 07:25:25;;;;;;;14.05;9.70;;;;;;;17.81;100.00;100313.16;6161004;23;20363;-93
2022/07/07 07:27:50;;;;;;;10.15;9.13;;;;;;;17.93;100.00;100314.91;6186215;23;20001;-93
2022/07/07 07:30:16;;;;;;;11.10;8.40;;;;;;;17.93;100.00;100314.91;6212470;23;20024;-92
2022/07/07 07:32:43;;;;;;;10.35;9.10;;;;;;;17.92;100.00;100318.97;6213679;23;20016;-93
2022/07/07 07:35:09;;;;;;;8.77;7.88;;;;;;;18.02;100.00;100306.41;6185982;23;20035;-91
2022/07/07 07:37:34;;;;;;;9.13;8.00;;;;;;;18.04;100.00;100309.50;6187761;23;20442;-91
2022/07/07 07:40:00;;;;;;;9.82;8.98;;;;;;;18.08;100.00;100296.06;6212339;23;20012;-91
2022/07/07 07:42:26;;;;;;;10.63;9.63;;;;;;;18.24;100.00;100278.75;6185931;23;20343;-86
2022/07/07 07:45:09;;;;;;;11.27;9.05;;;;;;;18.34;100.00;100288.63;6189889;23;20005;-90
2022/07/07 07:47:35;;;;;;;10.77;9.07;;;;;;;18.45;100.00;100283.19;6166028;23;20446;-91
2022/07/07 07:50:01;;;;;;;12.00;9.20;;;;;;;18.43;100.00;100282.91;6187575;23;20035;-91
2022/07/07 07:52:26;;;;;;;10.60;8.88;;;;;;;18.42;100.00;100289.00;6219592;23;20040;-91
2022/07/07 07:54:52;;;;;;;9.30;8.35;;;;;;;18.46;100.00;100287.56;6190005;23;20074;-91
2022/07/07 07:57:18;;;;;;;9.48;8.40;;;;;;;18.50;100.00;100296.56;6218177;23;20001;-91
2022/07/07 07:59:44;;;;;;;9.25;7.60;;;;;;;18.44;100.00;100284.44;6189112;23;20319;-86
2022/07/07 08:02:09;;;;;;;8.43;7.30;;;;;;;18.47;100.00;100291.16;6183140;23;20112;-91
2022/07/07 08:04:35;;;;;;;8.25;7.43;;;;;;;18.39;100.00;100284.38;6212470;23;20016;-91
2022/07/07 08:07:00;;;;;;;11.18;7.93;;;;;;;18.49;100.00;100268.94;6185005;23;20050;-91
2022/07/07 08:09:26;;;;;;;9.55;8.65;;;;;;;18.48;100.00;100270.97;6183151;23;20040;-90
2022/07/07 08:11:52;;;;;;;11.52;8.60;;;;;;;18.36;100.00;100257.25;6211960;23;20013;-90
2022/07/07 08:14:18;;;;;;;9.43;8.63;;;;;;;18.30;100.00;100268.41;6211937;23;20062;-91
2022/07/07 08:16:44;;;;;;;9.80;8.90;;;;;;;18.47;100.00;100251.81;6184795;23;20514;-91
2022/07/07 08:19:10;;;;;;;10.25;9.15;;;;;;;18.38;100.00;100246.31;6183084;23;20039;-91
2022/07/07 08:21:36;;;;;;;10.00;8.20;;;;;;;18.42;100.00;100250.47;6183872;23;20083;-86
2022/07/07 08:24:01;;;;;;;9.88;8.70;;;;;;;18.28;100.00;100251.25;6136060;23;20024;-86
2022/07/07 08:26:27;;;;;;;9.55;8.20;;;;;;;18.45;100.00;100266.34;6183965;23;20537;-86
2022/07/07 08:28:52;;;;;;;8.75;7.93;;;;;;;18.45;100.00;100265.56;6186783;23;20080;-86
2022/07/07 08:31:18;;;;;;;9.20;8.18;;;;;;;18.01;100.00;100274.78;6186778;23;20083;-86
2022/07/07 08:33:43;;;;;;;9.18;8.38;;;;;;;17.67;100.00;100286.63;6187276;23;20051;-84
2022/07/07 08:36:09;;;;;;;9.48;8.68;;;;;;;17.67;100.00;100281.00;6186892;23;20421;-90
2022/07/07 08:38:34;;;;;;;10.55;9.65;;;;;;;17.64;100.00;100277.13;6187253;23;20001;-84
2022/07/07 08:41:00;;;;;;;9.70;8.80;;;;;;;17.70;100.00;100263.22;6213898;23;20016;-89
2022/07/07 08:43:25;;;;;;;9.63;8.82;;;;;;;17.74;100.00;100263.03;6187328;23;20008;-90
2022/07/07 08:45:52;;;;;;;10.13;9.13;;;;;;;17.94;100.00;100254.72;6185047;23;20012;-89
2022/07/07 08:48:19;;;;;;;9.85;8.88;;;;;;;18.15;100.00;100256.41;6213273;23;20024;-89
2022/07/07 08:50:46;;;;;;;9.43;8.63;;;;;;;18.19;100.00;100245.75;6186873;23;20422;-90
2022/07/07 08:53:12;;;;;;;8.95;7.97;;;;;;;18.44;100.00;100250.00;6162215;23;20040;-89
2022/07/07 08:55:40;;;;;;;8.27;7.07;;;;;;;18.69;100.00;100249.38;6187468;23;20005;-91
2022/07/07 08:58:07;;;;;;;9.32;7.75;;;;;;;18.73;100.00;100240.75;6162023;23;20019;-85
2022/07/07 09:00:32;;;;;;;8.23;7.63;;;;;;;18.77;100.00;100242.09;6188492;23;20008;-85
2022/07/07 09:02:58;;;;;;;9.10;7.30;;;;;;;19.02;100.00;100235.03;6187563;23;20371;-85
2022/07/07 09:05:25;;;;;;;6.15;5.65;;;;;;;18.94;100.00;100225.47;6162324;23;20414;-86
2022/07/07 09:07:52;;;;;;;7.38;6.63;;;;;;;18.98;100.00;100231.66;6187545;23;20096;-86
2022/07/07 09:10:35;;;;;;;7.40;6.70;;;;;;;19.05;100.00;100228.44;6186883;23;20048;-86
2022/07/07 09:13:02;;;;;;;7.32;6.63;;;;;;;18.80;100.00;100223.50;6213966;23;20442;-86
2022/07/07 09:15:37;;;;;;;10.27;6.97;;;;;;;19.07;100.00;100231.53;6213541;23;20036;-85
2022/07/07 09:18:03;;;;;;;7.85;6.97;;;;;;;19.05;100.00;100211.56;6162861;23;20021;-85
2022/07/07 09:20:28;;;;;;;7.90;6.18;;;;;;;18.89;100.00;100212.88;6213268;23;20015;-86
2022/07/07 09:22:55;;;;;;;7.32;6.63;;;;;;;18.98;100.00;100212.00;6187196;23;20023;-86
2022/07/07 09:25:23;;;;;;;7.70;7.00;;;;;;;19.07;100.00;100215.44;6186709;23;20019;-86
2022/07/07 09:28:08;;;;;;;8.35;6.68;;;;;;;18.81;100.00;100210.97;6160135;23;20429;-85
2022/07/07 09:30:38;;;;;;;8.00;7.20;;;;;;;18.91;100.00;100209.59;6213501;23;20012;-85
2022/07/07 09:33:06;;;;;;;8.85;7.95;;;;;;;19.04;100.00;100193.94;6186003;23;20024;-86
2022/07/07 09:38:22;;;;;;;7.97;7.30;;;;;;;19.52;100.00;100208.38;6186269;23;20012;-86
2022/07/07 09:40:51;;;;;;;7.47;6.78;;;;;;;19.75;100.00;100212.19;6187607;23;20351;-86
2022/07/07 09:43:16;;;;;;;8.52;6.93;;;;;;;19.89;100.00;100202.88;6212625;23;20012;-86
2022/07/07 09:45:42;;;;;;;8.00;6.40;;;;;;;20.27;100.00;100218.53;6185729;23;20023;-85
2022/07/07 09:48:11;;;;;;;7.70;6.88;;;;;;;20.04;100.00;100202.72;6161817;23;20015;-86
2022/07/07 09:50:37;;;;;;;7.55;6.75;;;;;;;20.22;100.00;100205.19;6185944;23;20013;-86
2022/07/07 09:53:09;;;;;;;6.68;6.05;;;;;;;20.91;100.00;100198.25;6213338;23;20045;-86
2022/07/07 09:55:35;;;;;;;6.37;5.40;;;;;;;21.67;95.92;100200.41;6138004;23;20020;-92
2022/07/07 09:58:00;;;;;;;5.53;4.88;;;;;;;22.19;91.27;100195.88;6187363;23;20004;-91
2022/07/07 10:00:26;;;;;;;6.63;5.63;;;;;;;21.55;95.44;100193.97;6213049;23;20012;-92
2022/07/07 10:02:54;;;;;;;5.40;4.90;;;;;;;21.46;95.53;100202.66;6186750;23;20019;-92
2022/07/07 10:05:21;;;;;;;5.57;5.05;;;;;;;22.13;92.82;100191.47;6187147;23;20019;-92
2022/07/07 10:07:48;;;;;;;5.00;4.43;;;;;;;22.30;89.45;100190.22;6187255;23;20016;-91
2022/07/07 10:10:14;;;;;;;8.05;5.40;;;;;;;21.86;90.14;100184.50;6213184;23;20060;-93
2022/07/07 10:12:46;;;;;;;5.60;4.93;;;;;;;22.00;90.92;100186.34;6162364;23;20040;-91
2022/07/07 10:15:13;;;;;;;5.15;4.65;;;;;;;22.60;91.81;100178.38;6186591;23;20068;-86
2022/07/07 10:17:39;;;;;;;4.85;4.45;;;;;;;22.17;85.74;100186.34;6160282;23;20013;-87
2022/07/07 10:20:05;;;;;;;5.28;4.70;;;;;;;22.30;84.76;100184.56;6186129;23;20019;-87
2022/07/07 10:22:31;;;;;;;4.82;4.28;;;;;;;22.52;82.28;100186.59;6161314;23;20009;-86
2022/07/07 10:24:59;;;;;;;6.90;5.00;;;;;;;23.06;83.92;100178.50;6161210;23;20063;-86
2022/07/07 10:27:26;;;;;;;4.82;4.38;;;;;;;23.19;81.25;100170.22;6186562;23;20377;-86
2022/07/07 10:29:59;;;;;;;5.20;4.20;;;;;;;23.71;81.09;100172.28;6136468;23;20017;-88
2022/07/07 10:32:41;;;;;;;;;;;;;;;23.57;77.92;100173.41;6158540;23;20020;-87
2022/07/07 10:35:12;;;;;;;5.53;4.90;;;;;;;23.98;82.33;100174.13;6161430;23;19916;-93
2022/07/07 10:38:04;;;;;;;5.47;4.60;;;;;;;24.12;82.75;100177.91;6187421;23;20020;-92
2022/07/07 10:40:30;;;;;;;5.13;4.70;;;;;;;24.00;81.79;100174.41;6179440;23;20016;-93
2022/07/07 10:43:19;;;;;;;4.90;4.40;;;;;;;23.96;80.55;100181.63;6162027;23;20134;-95
2022/07/07 10:45:46;;;;;;;5.60;3.80;;;;;;;23.69;79.47;100172.81;6185063;23;20016;-93
2022/07/07 10:48:50;;;;;;;3.80;3.40;;;;;;;23.77;78.76;100173.03;6136727;23;20039;-94
2022/07/07 10:51:24;;;;;;;4.10;3.10;;;;;;;24.32;78.81;100163.34;6184992;23;20016;-93
2022/07/07 10:53:55;;;;;;;4.45;3.30;;;;;;;24.43;75.36;100156.78;6161301;23;20115;-88
2022/07/07 10:56:21;;;;;;;3.72;2.80;;;;;;;24.02;71.55;100151.97;6159590;23;20442;-89
2022/07/07 10:58:57;;;;;;;4.13;2.92;;;;;;;24.85;74.99;100152.50;6185000;23;20039;-89
2022/07/07 11:01:29;;;;;;;3.30;2.63;;;;;;;25.05;74.57;100149.94;6134815;23;20048;-88
2022/07/07 11:03:54;;;;;;;4.10;2.90;;;;;;;25.56;69.13;100152.88;6185169;23;20087;-87
2022/07/07 11:06:23;;;;;;;2.80;2.10;;;;;;;25.35;61.01;100146.97;6135241;23;20037;-87
2022/07/07 11:09:15;;;;;;;2.40;2.20;;;;;;;24.74;68.32;100130.69;6160397;23;20009;-87
2022/07/07 11:11:40;;;;;;;2.60;2.10;;;;;;;24.44;63.47;100129.97;6155103;23;20023;-88
2022/07/07 11:14:09;;;;;;;2.40;2.10;;;;;;;24.20;62.05;100118.63;6159866;23;20032;-87
2022/07/07 11:16:39;;;;;;;3.58;2.10;;;;;;;25.02;64.28;100116.97;6160232;23;20016;-88
2022/07/07 11:19:06;;;;;;;2.28;2.00;;;;;;;24.52;61.50;100111.06;6160374;23;20092;-88
2022/07/07 11:21:32;;;;;;;2.88;2.10;;;;;;;25.16;61.71;100108.50;6160053;23;20015;-88
2022/07/07 11:23:59;;;;;;;2.38;2.08;;;;;;;25.32;60.31;100113.97;6185587;23;20015;-88